Terminal Aerodrome Forecast
Issued by NWS

Home | Current Version | Previous Version | Text Only | Print | Product List | Glossary On
Versions: 1 2 3 4 5 6 7 8 9 10 11 12 13 14 15 16 17 18
000
FTUS46 KSEW 252300
TAFPAE
TAF
KPAE 252320Z 2600/2624 31007KT P6SM SKC
     FM260600 02003KT P6SM SCT050
     FM261000 VRB04KT P6SM SCT010
      TEMPO 2612/2616 BKN010
     FM261800 34006KT P6SM FEW025=

USA.gov is the U.S. government's official web portal to all federal, state and local government web resources and services.